Chillum, Maryland
Current Conditions -  °F | °C
As of 2:25 AM on Thursday 18 Dec 2014 (Local Time) from KCGS Reporting Station
Broken Clouds Broken Clouds  
Wind Chill: 32°   Ceiling: 5500
Heat Index: 37°   Visibility: 10mi
Dew Point: 25°   Wind: 7mph
Humidity: 60%   Direction: 290°WNW
Pressure: 30.09"   Gusts: NA
Location:  38.9677°N, 76.9584°W
Report Text: KCGS 180725Z AUTO 29006KT 10SM BKN055 03/M04 A3009 RMK AO1
Loading
Personal Weather Stations






























Interactive Weather Map New forecast layout! Learn more

10-Day Weather Forecast

Advertisements
Track Severe Weather on mobile